createdAt,value
2018-07-01T00:02:20.588Z,20.60
2018-07-01T00:04:48.927Z,20.60
2018-07-01T00:07:17.219Z,20.60
2018-07-01T00:09:45.529Z,20.60
2018-07-01T00:12:13.818Z,20.50
2018-07-01T00:14:42.228Z,20.50
2018-07-01T00:17:10.609Z,20.50
2018-07-01T00:19:38.980Z,20.40
2018-07-01T00:22:07.279Z,20.40
2018-07-01T00:24:35.637Z,20.40
2018-07-01T00:27:03.927Z,20.40
2018-07-01T00:29:32.233Z,20.30
2018-07-01T00:32:00.503Z,20.20
2018-07-01T00:34:28.810Z,20.20
2018-07-01T00:36:57.223Z,20.20
2018-07-01T00:39:25.566Z,20.10
2018-07-01T00:41:53.903Z,20.10
2018-07-01T00:44:22.186Z,20.10
2018-07-01T00:46:50.476Z,20.10
2018-07-01T00:49:18.768Z,20.00
2018-07-01T00:51:47.124Z,20.00
2018-07-01T00:54:15.410Z,19.90
2018-07-01T00:56:43.741Z,19.90
2018-07-01T00:59:12.115Z,19.90
2018-07-01T01:01:40.419Z,19.80
2018-07-01T01:04:08.750Z,19.80
2018-07-01T01:06:37.151Z,19.80
2018-07-01T01:09:08.216Z,19.80
2018-07-01T01:11:36.908Z,19.70
2018-07-01T01:14:05.586Z,19.70
2018-07-01T01:16:34.044Z,19.70
2018-07-01T01:19:02.349Z,19.60
2018-07-01T01:21:30.625Z,19.60
2018-07-01T01:23:58.985Z,19.60
2018-07-01T01:26:27.281Z,19.50
2018-07-01T01:28:55.577Z,19.40
2018-07-01T01:31:23.937Z,19.50
2018-07-01T01:33:52.224Z,19.40
2018-07-01T01:36:20.561Z,19.30
2018-07-01T01:38:50.126Z,19.30
2018-07-01T01:41:22.478Z,19.30
2018-07-01T01:43:54.125Z,19.20
2018-07-01T01:46:29.579Z,19.30
2018-07-01T01:49:08.063Z,19.20
2018-07-01T01:51:40.817Z,19.20
2018-07-01T01:54:15.187Z,19.20
2018-07-01T01:56:47.774Z,19.10
2018-07-01T01:59:26.768Z,19.10
2018-07-01T02:02:00.174Z,19.00
2018-07-01T02:04:33.673Z,19.00
2018-07-01T02:07:05.548Z,18.90
2018-07-01T02:09:35.578Z,18.90
2018-07-01T02:12:05.980Z,18.90
2018-07-01T02:14:47.130Z,18.90
2018-07-01T02:17:20.752Z,18.80
2018-07-01T02:19:49.211Z,18.80
2018-07-01T02:22:21.689Z,18.80
2018-07-01T02:24:51.031Z,18.80
2018-07-01T02:27:19.328Z,18.80
2018-07-01T02:29:47.659Z,18.80
2018-07-01T02:32:15.968Z,18.70
2018-07-01T02:34:44.276Z,18.70
2018-07-01T02:37:12.602Z,18.70
2018-07-01T02:39:40.942Z,18.60
2018-07-01T02:42:09.285Z,18.60
2018-07-01T02:47:06.122Z,18.60
2018-07-01T02:49:34.494Z,18.50
2018-07-01T02:52:02.810Z,18.50
2018-07-01T02:54:31.111Z,18.50
2018-07-01T02:56:59.431Z,18.50
2018-07-01T02:59:27.743Z,18.40
2018-07-01T03:01:56.015Z,18.50
2018-07-01T03:06:52.513Z,18.40
2018-07-01T03:09:20.819Z,18.40
2018-07-01T03:11:49.120Z,18.40
2018-07-01T03:16:45.461Z,18.30
2018-07-01T03:19:13.783Z,18.30
2018-07-01T03:21:42.086Z,18.30
2018-07-01T03:24:10.449Z,18.20
2018-07-01T03:26:38.814Z,18.10
2018-07-01T03:29:07.152Z,18.10
2018-07-01T03:31:35.427Z,18.10
2018-07-01T03:34:03.733Z,18.10
2018-07-01T03:36:31.990Z,18.10
2018-07-01T03:39:00.298Z,18.10
2018-07-01T03:41:28.665Z,18.10
2018-07-01T03:43:56.943Z,18.10
2018-07-01T03:46:25.441Z,18.10
2018-07-01T03:48:53.710Z,18.10
2018-07-01T03:51:22.030Z,18.10
2018-07-01T03:53:50.323Z,18.10
2018-07-01T03:56:18.636Z,18.00
2018-07-01T03:58:46.950Z,18.00
2018-07-01T04:01:15.270Z,18.10
2018-07-01T04:03:43.662Z,18.00
2018-07-01T04:06:11.964Z,18.00
2018-07-01T04:08:40.274Z,18.00
2018-07-01T04:11:08.644Z,18.00
2018-07-01T04:13:36.955Z,18.00
2018-07-01T04:16:05.284Z,18.00
2018-07-01T04:18:33.645Z,18.00
2018-07-01T04:21:01.966Z,18.00
2018-07-01T04:23:30.281Z,18.00
2018-07-01T04:25:58.593Z,18.00
2018-07-01T04:28:26.977Z,18.10
2018-07-01T04:30:55.307Z,18.10
2018-07-01T04:33:23.689Z,18.10
2018-07-01T04:35:51.994Z,18.10
2018-07-01T04:38:20.349Z,18.10
2018-07-01T04:40:48.738Z,18.20
2018-07-01T04:43:17.006Z,18.20
2018-07-01T04:45:45.318Z,18.10
2018-07-01T04:48:13.607Z,18.20
2018-07-01T04:50:41.951Z,18.20
2018-07-01T04:53:10.282Z,18.20
2018-07-01T04:55:38.584Z,18.20
2018-07-01T04:58:07.433Z,18.20
2018-07-01T05:00:36.080Z,18.20
2018-07-01T05:03:05.827Z,18.30
2018-07-01T05:05:34.151Z,18.30
2018-07-01T05:08:02.465Z,18.30
2018-07-01T05:10:30.755Z,18.40
2018-07-01T05:12:59.076Z,18.40
2018-07-01T05:15:27.367Z,18.40
2018-07-01T05:17:55.658Z,18.50
2018-07-01T05:20:23.933Z,18.60
2018-07-01T05:22:52.252Z,18.60
2018-07-01T05:25:20.562Z,18.70
2018-07-01T05:27:48.887Z,18.70
2018-07-01T05:30:17.213Z,18.70
2018-07-01T05:32:45.573Z,18.70
2018-07-01T05:35:13.849Z,18.80
2018-07-01T05:37:42.157Z,18.80
2018-07-01T05:40:10.459Z,18.80
2018-07-01T05:42:38.809Z,18.80
2018-07-01T05:45:07.148Z,18.90
2018-07-01T05:47:35.690Z,18.90
2018-07-01T05:50:04.464Z,18.90
2018-07-01T05:52:32.822Z,19.00
2018-07-01T05:55:01.148Z,19.10
2018-07-01T05:57:29.471Z,19.20
2018-07-01T05:59:57.762Z,19.20
2018-07-01T06:02:26.059Z,19.30
2018-07-01T06:04:54.359Z,19.30
2018-07-01T06:07:22.690Z,19.40
2018-07-01T06:09:50.970Z,19.50
2018-07-01T06:12:19.249Z,19.50
2018-07-01T06:14:47.595Z,19.50
2018-07-01T06:17:15.884Z,19.60
2018-07-01T06:19:44.200Z,19.60
2018-07-01T06:22:12.576Z,19.70
2018-07-01T06:24:40.991Z,19.70
2018-07-01T06:27:09.278Z,19.70
2018-07-01T06:29:37.609Z,19.80
2018-07-01T06:32:05.918Z,19.90
2018-07-01T06:34:34.232Z,19.90
2018-07-01T06:37:02.530Z,20.00
2018-07-01T06:39:30.855Z,20.10
2018-07-01T06:41:59.221Z,20.10
2018-07-01T06:44:27.472Z,20.10
2018-07-01T06:46:55.765Z,20.20
2018-07-01T06:49:24.090Z,20.30
2018-07-01T06:51:52.396Z,20.40
2018-07-01T06:54:20.716Z,20.40
2018-07-01T06:56:49.200Z,20.50
2018-07-01T06:59:17.534Z,20.50
2018-07-01T07:01:45.851Z,20.60
2018-07-01T07:04:14.228Z,20.70
2018-07-01T07:06:42.539Z,20.70
2018-07-01T07:09:12.588Z,20.80
2018-07-01T07:11:41.137Z,20.80
2018-07-01T07:14:09.484Z,20.90
2018-07-01T07:16:37.892Z,21.10
2018-07-01T07:19:06.623Z,21.20
2018-07-01T07:21:34.956Z,21.20
2018-07-01T07:24:03.255Z,21.20
2018-07-01T07:26:31.601Z,21.30
2018-07-01T07:28:59.888Z,21.20
2018-07-01T07:31:28.214Z,21.30
2018-07-01T07:33:56.534Z,21.40
2018-07-01T07:36:24.855Z,21.40
2018-07-01T07:38:53.139Z,21.50
2018-07-01T07:41:21.501Z,21.60
2018-07-01T07:43:49.863Z,21.60
2018-07-01T07:46:18.151Z,21.70
2018-07-01T07:48:46.443Z,21.70
2018-07-01T07:51:14.723Z,21.80
2018-07-01T07:53:43.017Z,21.80
2018-07-01T07:56:11.331Z,21.80
2018-07-01T07:58:39.636Z,21.80
2018-07-01T08:01:08.237Z,21.90
2018-07-01T08:03:36.750Z,22.10
2018-07-01T08:06:05.082Z,22.10
2018-07-01T08:08:33.406Z,22.20
2018-07-01T08:11:01.700Z,22.20
2018-07-01T08:13:30.089Z,22.30
2018-07-01T08:15:58.462Z,22.40
2018-07-01T08:18:26.837Z,22.40
2018-07-01T08:20:55.463Z,22.50
2018-07-01T08:23:23.784Z,22.50
2018-07-01T08:25:52.102Z,22.60
2018-07-01T08:28:20.415Z,22.60
2018-07-01T08:30:48.703Z,22.70
2018-07-01T08:33:16.990Z,22.80
2018-07-01T08:35:45.254Z,22.80
2018-07-01T08:40:41.668Z,23.00
2018-07-01T08:43:09.966Z,23.00
2018-07-01T08:45:38.238Z,23.00
2018-07-01T08:48:06.522Z,23.00
2018-07-01T08:50:34.843Z,23.10
2018-07-01T08:53:03.157Z,23.20
2018-07-01T08:55:31.457Z,23.30
2018-07-01T08:57:59.803Z,23.30
2018-07-01T09:00:28.107Z,23.40
2018-07-01T09:02:56.399Z,23.50
2018-07-01T09:05:24.730Z,23.50
2018-07-01T09:07:53.081Z,23.60
2018-07-01T09:10:21.401Z,23.60
2018-07-01T09:12:49.724Z,23.80
2018-07-01T09:15:18.000Z,23.80
2018-07-01T09:17:46.311Z,23.90
2018-07-01T09:20:14.711Z,23.90
2018-07-01T09:22:43.086Z,23.90
2018-07-01T09:25:11.390Z,23.90
2018-07-01T09:27:39.708Z,23.80
2018-07-01T09:30:08.054Z,23.90
2018-07-01T09:32:42.745Z,23.90
2018-07-01T09:35:11.059Z,24.00
2018-07-01T09:37:39.355Z,24.10
2018-07-01T09:40:07.675Z,24.10
2018-07-01T09:42:35.962Z,24.10
2018-07-01T09:45:04.322Z,24.20
2018-07-01T09:47:32.622Z,24.30
2018-07-01T09:50:01.011Z,24.30
2018-07-01T09:52:29.316Z,24.40
2018-07-01T09:54:57.677Z,24.50
2018-07-01T09:57:25.994Z,24.50
2018-07-01T09:59:54.479Z,24.60
2018-07-01T10:02:22.792Z,24.70
2018-07-01T10:04:51.140Z,24.70
2018-07-01T10:07:19.463Z,24.80
2018-07-01T10:09:47.784Z,24.70
2018-07-01T10:12:16.302Z,24.90
2018-07-01T10:14:44.786Z,24.90
2018-07-01T10:17:13.207Z,24.80
2018-07-01T10:19:41.700Z,24.80
2018-07-01T10:22:10.763Z,24.80
2018-07-01T10:24:39.055Z,24.70
2018-07-01T10:27:07.470Z,24.90
2018-07-01T10:29:35.764Z,25.00
2018-07-01T10:32:04.089Z,25.00
2018-07-01T10:34:32.382Z,25.10
2018-07-01T10:37:00.715Z,25.00
2018-07-01T10:39:29.015Z,25.20
2018-07-01T10:41:57.366Z,25.20
2018-07-01T10:44:25.675Z,25.30
2018-07-01T10:46:53.981Z,25.30
2018-07-01T10:49:22.327Z,25.20
2018-07-01T10:51:50.640Z,25.20
2018-07-01T10:54:18.932Z,25.20
2018-07-01T10:56:47.298Z,25.40
2018-07-01T10:59:15.595Z,25.40
2018-07-01T11:01:44.340Z,25.40
2018-07-01T11:04:12.654Z,25.50
2018-07-01T11:09:10.478Z,25.70
2018-07-01T11:11:39.737Z,25.80
2018-07-01T11:14:08.060Z,25.70
2018-07-01T11:16:36.389Z,25.80
2018-07-01T11:19:05.132Z,25.80
2018-07-01T11:21:33.503Z,25.90
2018-07-01T11:24:01.855Z,25.90
2018-07-01T11:26:30.171Z,25.90
2018-07-01T11:28:58.482Z,26.00
2018-07-01T11:31:26.976Z,26.00
2018-07-01T11:36:23.330Z,26.00
2018-07-01T11:38:51.694Z,26.00
2018-07-01T11:41:20.270Z,26.10
2018-07-01T11:43:48.566Z,26.10
2018-07-01T11:46:16.930Z,26.20
2018-07-01T11:51:13.345Z,26.40
2018-07-01T11:53:41.733Z,26.40
2018-07-01T11:56:10.134Z,26.40
2018-07-01T11:58:38.522Z,26.40
2018-07-01T12:01:06.804Z,26.30
2018-07-01T12:03:35.116Z,26.50
2018-07-01T12:06:03.384Z,26.60
2018-07-01T12:08:31.684Z,26.50
2018-07-01T12:10:59.962Z,26.70
2018-07-01T12:13:28.248Z,26.60
2018-07-01T12:15:56.515Z,26.70
2018-07-01T12:18:24.866Z,26.80
2018-07-01T12:20:53.179Z,26.90
2018-07-01T12:23:21.575Z,26.90
2018-07-01T12:25:49.804Z,26.80
2018-07-01T12:28:18.117Z,26.80
2018-07-01T12:30:46.389Z,26.90
2018-07-01T12:33:14.687Z,26.90
2018-07-01T12:35:43.017Z,27.00
2018-07-01T12:38:11.328Z,27.00
2018-07-01T12:40:39.644Z,26.90
2018-07-01T12:43:07.963Z,27.10
2018-07-01T12:45:36.242Z,27.20
2018-07-01T12:48:04.562Z,27.20
2018-07-01T12:50:32.876Z,27.10
2018-07-01T12:53:01.179Z,27.30
2018-07-01T12:55:29.585Z,27.40
2018-07-01T12:57:58.016Z,27.60
2018-07-01T13:00:26.427Z,27.70
2018-07-01T13:02:54.699Z,27.70
2018-07-01T13:05:23.040Z,27.90
2018-07-01T13:07:51.330Z,28.10
2018-07-01T13:10:19.649Z,28.40
2018-07-01T13:12:47.938Z,28.60
2018-07-01T13:15:16.248Z,28.60
2018-07-01T13:17:44.581Z,28.90
2018-07-01T13:20:12.934Z,29.10
2018-07-01T13:22:41.252Z,29.30
2018-07-01T13:25:09.593Z,29.30
2018-07-01T13:27:37.870Z,29.50
2018-07-01T13:30:06.348Z,29.50
2018-07-01T13:32:34.622Z,29.50
2018-07-01T13:35:02.960Z,29.90
2018-07-01T13:37:31.555Z,30.30
2018-07-01T13:39:59.869Z,30.60
2018-07-01T13:42:28.205Z,30.60
2018-07-01T13:44:56.558Z,30.80
2018-07-01T13:47:24.882Z,31.00
2018-07-01T13:49:53.236Z,31.20
2018-07-01T13:52:21.565Z,31.30
2018-07-01T13:54:49.872Z,31.30
2018-07-01T13:57:18.163Z,31.40
2018-07-01T13:59:46.459Z,31.80
2018-07-01T14:02:14.779Z,32.10
2018-07-01T14:04:46.075Z,32.10
2018-07-01T14:07:14.385Z,32.30
2018-07-01T14:09:42.719Z,32.50
2018-07-01T14:12:11.020Z,32.70
2018-07-01T14:14:39.348Z,32.80
2018-07-01T14:17:07.659Z,33.00
2018-07-01T14:19:36.077Z,33.30
2018-07-01T14:22:04.371Z,33.30
2018-07-01T14:24:32.668Z,33.40
2018-07-01T14:27:01.171Z,33.60
2018-07-01T14:29:29.390Z,33.90
2018-07-01T14:31:57.680Z,33.90
2018-07-01T14:34:25.986Z,33.80
2018-07-01T14:36:54.294Z,34.00
2018-07-01T14:39:22.591Z,34.10
2018-07-01T14:41:50.967Z,34.30
2018-07-01T14:44:19.276Z,34.30
2018-07-01T14:46:47.575Z,33.70
2018-07-01T14:49:16.091Z,34.60
2018-07-01T14:51:44.400Z,34.50
2018-07-01T14:54:12.704Z,34.50
2018-07-01T14:56:40.981Z,34.70
2018-07-01T14:59:09.281Z,34.80
2018-07-01T15:01:37.569Z,34.90
2018-07-01T15:04:06.047Z,35.30
2018-07-01T15:06:34.324Z,34.80
2018-07-01T15:09:02.691Z,35.30
2018-07-01T15:11:30.964Z,35.10
2018-07-01T15:13:59.257Z,35.40
2018-07-01T15:16:27.555Z,35.90
2018-07-01T15:18:55.877Z,35.90
2018-07-01T15:21:24.172Z,36.20
2018-07-01T15:23:52.507Z,36.20
2018-07-01T15:26:20.827Z,36.50
2018-07-01T15:28:50.033Z,36.30
2018-07-01T15:31:18.318Z,36.50
2018-07-01T15:33:46.615Z,36.70
2018-07-01T15:36:14.896Z,36.90
2018-07-01T15:38:43.841Z,37.00
2018-07-01T15:41:12.159Z,37.00
2018-07-01T15:43:40.590Z,37.10
2018-07-01T15:46:08.929Z,37.00
2018-07-01T15:48:37.290Z,37.40
2018-07-01T15:51:06.005Z,36.20
2018-07-01T15:53:34.306Z,37.40
2018-07-01T15:56:02.806Z,37.30
2018-07-01T15:58:31.089Z,38.60
2018-07-01T16:00:59.426Z,39.10
2018-07-01T16:03:27.710Z,39.30
2018-07-01T16:05:56.046Z,39.50
2018-07-01T16:08:24.322Z,39.70
2018-07-01T16:10:52.651Z,40.60
2018-07-01T16:13:21.075Z,41.10
2018-07-01T16:15:49.395Z,40.90
2018-07-01T16:18:17.987Z,41.00
2018-07-01T16:20:46.491Z,40.70
2018-07-01T16:23:14.784Z,40.70
2018-07-01T16:28:21.991Z,40.60
2018-07-01T16:30:50.313Z,39.90
2018-07-01T16:33:18.612Z,38.60
2018-07-01T16:35:47.209Z,37.60
2018-07-01T16:38:15.551Z,36.20
2018-07-01T16:40:43.932Z,35.40
2018-07-01T16:43:12.270Z,34.50
2018-07-01T16:45:40.613Z,34.40
2018-07-01T16:48:09.807Z,33.80
2018-07-01T16:50:38.192Z,33.20
2018-07-01T16:53:06.640Z,32.90
2018-07-01T16:55:34.971Z,32.60
2018-07-01T16:58:03.263Z,32.40
2018-07-01T17:02:59.667Z,31.60
2018-07-01T17:05:28.067Z,31.60
2018-07-01T17:07:56.288Z,31.40
2018-07-01T17:10:24.581Z,30.80
2018-07-01T17:12:53.035Z,30.80
2018-07-01T17:15:21.338Z,30.60
2018-07-01T17:17:49.704Z,30.70
2018-07-01T17:20:17.975Z,30.30
2018-07-01T17:22:46.296Z,30.30
2018-07-01T17:25:14.691Z,30.10
2018-07-01T17:27:43.147Z,29.80
2018-07-01T17:30:11.422Z,29.80
2018-07-01T17:32:45.231Z,29.80
2018-07-01T17:35:13.557Z,29.30
2018-07-01T17:37:41.956Z,29.30
2018-07-01T17:40:10.433Z,29.10
2018-07-01T17:42:38.773Z,29.10
2018-07-01T17:45:07.065Z,28.80
2018-07-01T17:47:35.391Z,28.70
2018-07-01T17:50:03.692Z,28.70
2018-07-01T17:52:31.988Z,28.60
2018-07-01T17:55:00.258Z,28.40
2018-07-01T17:57:28.673Z,28.30
2018-07-01T17:59:56.976Z,28.30
2018-07-01T18:02:25.286Z,28.20
2018-07-01T18:04:53.887Z,28.10
2018-07-01T18:07:22.423Z,28.10
2018-07-01T18:09:51.831Z,28.00
2018-07-01T18:12:20.234Z,27.80
2018-07-01T18:14:48.607Z,27.60
2018-07-01T18:17:16.904Z,27.70
2018-07-01T18:19:45.240Z,27.60
2018-07-01T18:22:27.969Z,27.50
2018-07-01T18:24:58.067Z,27.50
2018-07-01T18:27:10.645Z,27.40
2018-07-01T18:29:39.044Z,27.30
2018-07-01T18:32:07.426Z,27.20
2018-07-01T18:34:35.753Z,27.10
2018-07-01T18:37:04.674Z,27.20
2018-07-01T18:39:33.051Z,27.20
2018-07-01T18:42:01.347Z,27.00
2018-07-01T18:44:29.967Z,27.00
2018-07-01T18:46:58.252Z,26.90
2018-07-01T18:51:54.650Z,26.90
2018-07-01T18:54:22.961Z,26.80
2018-07-01T18:56:51.254Z,26.60
2018-07-01T18:59:19.651Z,26.60
2018-07-01T19:01:47.967Z,26.60
2018-07-01T19:04:16.294Z,26.40
2018-07-01T19:06:44.607Z,26.40
2018-07-01T19:09:13.249Z,26.30
2018-07-01T19:11:41.545Z,26.20
2018-07-01T19:14:09.863Z,26.20
2018-07-01T19:16:38.174Z,26.10
2018-07-01T19:19:06.771Z,26.10
2018-07-01T19:24:04.981Z,26.00
2018-07-01T19:26:33.331Z,25.90
2018-07-01T19:29:01.641Z,25.80
2018-07-01T19:31:30.191Z,25.70
2018-07-01T19:36:26.498Z,25.70
2018-07-01T19:38:54.908Z,25.60
2018-07-01T19:41:23.544Z,25.50
2018-07-01T19:43:51.994Z,25.40
2018-07-01T19:46:20.460Z,25.30
2018-07-01T19:48:48.795Z,25.30
2018-07-01T19:51:17.212Z,25.30
2018-07-01T19:53:45.511Z,25.20
2018-07-01T19:56:13.832Z,25.20
2018-07-01T19:58:42.126Z,25.20
2018-07-01T20:01:10.449Z,25.10
2018-07-01T20:03:38.750Z,25.00
2018-07-01T20:06:07.192Z,25.00
2018-07-01T20:08:35.531Z,25.00
2018-07-01T20:11:03.977Z,24.90
2018-07-01T20:13:32.291Z,24.90
2018-07-01T20:16:00.615Z,24.80
2018-07-01T20:18:29.073Z,24.70
2018-07-01T20:20:57.522Z,24.60
2018-07-01T20:23:25.830Z,24.60
2018-07-01T20:25:54.238Z,24.50
2018-07-01T20:28:22.839Z,24.40
2018-07-01T20:30:51.144Z,24.40
2018-07-01T20:33:19.466Z,24.40
2018-07-01T20:35:47.776Z,24.30
2018-07-01T20:38:16.120Z,24.20
2018-07-01T20:40:44.489Z,24.20
2018-07-01T20:45:40.926Z,24.10
2018-07-01T20:48:09.669Z,24.10
2018-07-01T20:50:38.020Z,24.00
2018-07-01T20:53:06.366Z,23.80
2018-07-01T20:55:34.716Z,23.80
2018-07-01T20:58:03.014Z,23.80
2018-07-01T21:00:31.313Z,23.80
2018-07-01T21:02:59.710Z,23.70
2018-07-01T21:05:28.041Z,23.60
2018-07-01T21:07:56.388Z,23.60
2018-07-01T21:10:24.800Z,23.60
2018-07-01T21:12:53.150Z,23.50
2018-07-01T21:15:21.508Z,23.50
2018-07-01T21:17:49.897Z,23.40
2018-07-01T21:20:18.480Z,23.20
2018-07-01T21:22:46.899Z,23.20
2018-07-01T21:25:18.183Z,23.00
2018-07-01T21:27:46.767Z,23.00
2018-07-01T21:30:15.058Z,23.00
2018-07-01T21:32:43.493Z,22.90
2018-07-01T21:35:12.371Z,22.90
2018-07-01T21:37:41.747Z,22.70
2018-07-01T21:40:11.269Z,22.70
2018-07-01T21:42:39.737Z,22.60
2018-07-01T21:45:08.697Z,22.50
2018-07-01T21:47:37.389Z,22.30
2018-07-01T21:50:06.078Z,22.30
2018-07-01T21:52:34.702Z,22.30
2018-07-01T21:55:04.774Z,22.20
2018-07-01T21:57:33.204Z,22.20
2018-07-01T22:00:01.617Z,22.10
2018-07-01T22:02:29.969Z,22.00
2018-07-01T22:04:58.342Z,22.00
2018-07-01T22:07:26.749Z,21.90
2018-07-01T22:09:55.175Z,21.80
2018-07-01T22:12:34.752Z,21.80
2018-07-01T22:15:21.726Z,21.70
2018-07-01T22:17:50.134Z,21.70
2018-07-01T22:22:47.109Z,21.50
2018-07-01T22:25:15.420Z,21.50
2018-07-01T22:27:43.739Z,21.40
2018-07-01T22:30:12.061Z,21.40
2018-07-01T22:32:40.784Z,21.40
2018-07-01T22:35:09.125Z,21.30
2018-07-01T22:37:37.502Z,21.30
2018-07-01T22:40:06.326Z,21.30
2018-07-01T22:42:34.655Z,21.20
2018-07-01T22:45:03.045Z,21.20
2018-07-01T22:47:31.349Z,21.10
2018-07-01T22:49:59.663Z,21.10
2018-07-01T22:52:28.007Z,21.00
2018-07-01T22:54:56.352Z,21.00
2018-07-01T22:57:24.657Z,21.00
2018-07-01T22:59:52.980Z,20.90
2018-07-01T23:03:00.226Z,20.90
2018-07-01T23:05:28.564Z,20.90
2018-07-01T23:07:56.889Z,20.80
2018-07-01T23:10:26.414Z,20.80
2018-07-01T23:15:23.483Z,20.70
2018-07-01T23:20:19.850Z,20.60
2018-07-01T23:22:48.279Z,20.60
2018-07-01T23:25:16.623Z,20.60
2018-07-01T23:27:45.655Z,20.50
2018-07-01T23:30:14.001Z,20.50
2018-07-01T23:32:42.606Z,20.50
2018-07-01T23:35:11.005Z,20.40
2018-07-01T23:37:39.625Z,20.40
2018-07-01T23:40:08.677Z,20.40
2018-07-01T23:42:37.048Z,20.30
2018-07-01T23:45:07.146Z,20.30
2018-07-01T23:47:35.531Z,20.20
2018-07-01T23:50:04.859Z,20.20
2018-07-01T23:52:33.222Z,20.00
2018-07-01T23:55:01.731Z,20.00
2018-07-01T23:57:30.148Z,20.00
2018-07-01T23:59:58.527Z,20.00
